Latest Weather Observations for Perisher Valley

IDN60801

Issued at 5:02 pm EST Tuesday 7 July 2015 (issued every 30 minutes, with the page automatically refreshed every 10 minutes)

About weather observations | Map of weather stations | Latest weather observations for NSW | Other Formats
Station Details ID: 071075 Name: PERISHER VALLEY AWS Lat: -36.41 Lon: 148.41 Height: 1738.0 m
Data from the previous 72 hours. | See also: Recent months at Perisher Valley
Date/Time
EST
Temp
°C
App
Temp
°C
Dew
Point
Rel
Hum
%
Delta-T
°C
Wind Press
QNH
hPa
Press
MSL
hPa
Rain
since 9 am
mm
Dir
 
Spd
km/h
Gust
km/h
Spd
kts
Gust
kts
07/05:00pm -0.1 -2.8 -2.5 84 0.9 E 2 6 1 3 - - 0.0
07/04:30pm -0.2 -3.3 -2.7 83 0.9 WSW 4 6 2 3 - - 0.0
07/04:00pm 0.6 -2.5 -2.4 80 1.2 ESE 4 9 2 5 - - 0.0
07/03:30pm 1.2 -2.4 -2.2 78 1.4 ESE 7 11 4 6 - - 0.0
07/03:00pm 1.6 -2.0 -2.3 75 1.5 ESE 7 13 4 7 - - 0.0
07/02:30pm 2.2 -1.4 -1.9 74 1.6 ESE 7 15 4 8 - - 0.0
07/02:00pm 2.1 -1.4 -1.5 77 1.4 SE 7 17 4 9 - - 0.0
07/01:30pm 2.9 -0.7 -1.8 71 1.9 SE 7 19 4 10 - - 0.0
07/01:00pm 3.4 -0.1 -1.7 69 2.1 SSW 7 17 4 9 - - 0.0
07/12:30pm 2.4 -1.1 -1.2 77 1.5 SSE 7 15 4 8 - - 0.0
07/12:00pm 1.5 -2.5 -2.1 77 1.4 S 9 13 5 7 - - 0.0
07/11:30am 1.8 -1.4 -0.6 84 1.0 ESE 6 11 3 6 - - 0.0
07/11:00am 1.6 -1.9 -1.1 82 1.1 SE 7 13 4 7 - - 0.0
07/10:30am 1.0 -2.3 -1.6 83 1.1 SSW 6 13 3 7 - - 0.0
07/10:00am 0.6 -3.0 -1.9 83 1.0 S 7 17 4 9 - - 0.0
07/09:30am -0.3 -5.0 -1.9 89 0.6 SSW 13 20 7 11 - - 0.0
07/09:00am 0.3 -3.0 -1.1 90 0.6 SSW 6 13 3 7 - - 0.0
07/08:30am -0.2 -3.7 -1.3 92 0.4 SSW 7 11 4 6 - - 0.0
07/08:00am -0.7 -4.3 -1.8 92 0.4 SSW 7 15 4 8 - - 0.0
07/07:30am -1.2 -4.9 -2.5 91 0.4 SSW 7 17 4 9 - - 0.0
07/07:00am -0.9 -4.5 -2.2 91 0.5 SW 7 13 4 7 - - 0.0
07/06:30am -0.9 -4.9 -2.2 91 0.5 SW 9 15 5 8 - - 0.0
07/06:00am -1.3 -4.4 -2.4 92 0.4 WSW 4 7 2 4 - - 0.0
07/05:30am -1.5 -4.6 -2.5 93 0.3 SW 4 9 2 5 - - 0.0
07/05:00am -1.9 -5.5 -3.3 90 0.4 SW 6 9 3 5 - - 0.0
07/04:30am -3.1 -6.4 -4.5 90 0.3 SW 4 7 2 4 - - 0.0
07/04:00am -1.3 -5.5 -3.5 85 0.7 WSW 9 19 5 10 - - 0.0
07/03:30am -1.0 -5.1 -2.9 87 0.7 WSW 9 19 5 10 - - 0.0
07/03:00am -0.9 -4.4 -2.8 87 0.7 SSW 6 15 3 8 - - 0.0
07/02:30am -1.0 -4.1 -2.3 91 0.4 SW 4 11 2 6 - - 0.0
07/02:00am -0.9 -4.5 -2.0 92 0.4 WSW 7 15 4 8 - - 0.0
07/01:30am -1.0 -6.1 -2.1 92 0.4 WSW 15 32 8 17 - - 0.0
07/01:00am -1.0 -5.8 -2.3 91 0.4 WSW 13 28 7 15 - - 0.0
07/12:30am -0.9 -4.9 -2.2 91 0.5 WSW 9 19 5 10 - - 0.0
07/12:00am -1.0 -5.8 -2.6 89 0.6 WSW 13 24 7 13 - - 0.0
 
Date/Time
EST
Temp
°C
App
Temp
°C
Dew
Point
Rel
Hum
%
Delta-T
°C
Wind Press
QNH
hPa
Press
MSL
hPa
Rain
since 9 am
mm
Dir
 
Spd
km/h
Gust
km/h
Spd
kts
Gust
kts
06/11:30pm -0.8 -5.1 -1.9 92 0.4 WSW 11 28 6 15 - - 0.0
06/11:00pm -0.9 -5.6 -1.7 94 0.3 WSW 13 32 7 17 - - 0.0
06/10:30pm -0.8 -5.5 -1.8 93 0.3 WSW 13 32 7 17 - - 0.0
06/10:00pm -0.7 -5.0 -1.8 92 0.4 WSW 11 32 6 17 - - 0.0
06/09:30pm -0.1 -6.2 -2.0 87 0.7 WSW 20 33 11 18 - - 0.0
06/09:00pm 0.3 -6.1 -1.6 87 0.8 W 22 37 12 20 - - 0.0
06/08:30pm 0.1 -5.3 -1.6 88 0.7 WSW 17 32 9 17 - - 0.0
06/08:00pm 0.3 -4.4 -1.6 87 0.8 WSW 13 30 7 16 - - 0.0
06/07:30pm 0.0 -3.5 -1.7 88 0.7 SW 7 26 4 14 - - 0.0
06/07:00pm 0.1 -3.8 -1.5 89 0.6 WSW 9 19 5 10 - - 0.0
06/06:30pm -0.1 -4.8 -2.0 87 0.7 W 13 24 7 13 - - 0.0
06/06:00pm 0.0 -4.8 -2.2 85 0.8 WSW 13 26 7 14 - - 0.0
06/05:30pm 0.0 -4.7 -2.1 86 0.8 W 13 22 7 12 - - 0.0
06/05:00pm 0.4 -3.6 -2.3 82 1.1 WSW 9 20 5 11 - - 0.0
06/04:30pm 0.8 -2.8 -2.2 80 1.2 WSW 7 17 4 9 - - 0.0
06/04:00pm 1.6 -1.8 -2.2 76 1.5 WSW 6 11 3 6 - - 0.0
06/03:30pm 2.3 -0.7 -1.8 74 1.6 SW 4 11 2 6 - - 0.0
06/03:00pm 2.2 -1.2 -1.9 74 1.6 SW 6 13 3 7 - - 0.0
06/02:30pm 2.9 -0.6 -2.6 67 2.2 WSW 6 13 3 7 - - 0.0
06/02:00pm 2.5 -1.6 -2.8 68 2.1 WSW 9 17 5 9 - - 0.0
06/01:30pm 2.8 -2.0 -2.3 69 2.0 SSW 13 19 7 10 - - 0.0
06/01:00pm 3.1 -0.5 -2.0 69 2.0 SSW 7 20 4 11 - - 0.0
06/12:30pm 3.5 0.1 -2.4 65 2.3 ESE 6 15 3 8 - - 0.0
06/12:00pm 3.7 0.2 -2.5 64 2.5 SSE 6 17 3 9 - - 0.0
06/11:30am 3.5 -0.1 -2.4 65 2.3 SSE 7 19 4 10 - - 0.0
06/11:00am 3.9 0.2 -2.7 62 2.6 SE 7 17 4 9 - - 0.0
06/10:30am 3.7 0.3 -2.3 65 2.4 SSE 6 15 3 8 - - 0.0
06/10:00am 3.0 -1.0 -2.1 69 2.0 SSW 9 15 5 8 - - 0.0
06/09:30am 2.3 -0.4 -2.2 72 1.8 SSW 2 7 1 4 - - 0.0
06/09:00am 0.8 -2.9 -2.8 77 1.4 WSW 7 15 4 8 - - 0.0
06/08:30am -1.1 -4.1 -5.0 75 1.3 WSW 2 6 1 3 - - 0.0
06/08:00am -3.6 -6.8 -7.4 75 1.1 SW 2 6 1 3 - - 0.0
06/07:30am -5.5 -9.3 -10.3 69 1.2 WSW 4 9 2 5 - - 0.0
06/07:00am -6.8 -11.1 -12.1 66 1.2 W 6 7 3 4 - - 0.0
06/06:30am -7.3 -10.8 -11.3 73 0.8 SW 2 6 1 3 - - 0.0
06/06:00am -7.2 -11.1 -11.4 72 0.9 SW 4 7 2 4 - - 0.0
06/05:30am -6.7 -10.3 -12.7 62 1.3 SSE 2 4 1 2 - - 0.0
06/05:00am -5.7 -8.9 -11.8 62 1.5 CALM 0 4 0 2 - - 0.0
06/04:30am -5.9 -10.2 -12.2 61 1.5 WSW 6 13 3 7 - - 0.0
06/04:00am -6.6 -10.4 -10.3 75 0.8 WSW 4 6 2 3 - - 0.0
06/03:30am -6.5 -10.3 -10.3 74 0.8 SW 4 6 2 3 - - 0.0
06/03:00am -5.2 -9.3 -8.9 75 0.9 ENE 6 7 3 4 - - 0.0
06/02:30am -3.0 -7.1 -8.8 64 1.7 SSW 6 13 3 7 - - 0.0
06/02:00am -2.8 -6.8 -6.1 78 1.0 SW 7 15 4 8 - - 0.0
06/01:30am -2.6 -7.0 -5.9 78 1.0 WSW 9 20 5 11 - - 0.0
06/01:00am -2.2 -7.0 -5.8 76 1.1 W 11 19 6 10 - - 0.0
06/12:30am -1.5 -6.7 -5.7 73 1.4 W 13 20 7 11 - - 0.0
06/12:00am -6.3 -9.2 -8.0 88 0.3 CALM 0 2 0 1 - - 0.0
 
Date/Time
EST
Temp
°C
App
Temp
°C
Dew
Point
Rel
Hum
%
Delta-T
°C
Wind Press
QNH
hPa
Press
MSL
hPa
Rain
since 9 am
mm
Dir
 
Spd
km/h
Gust
km/h
Spd
kts
Gust
kts
05/11:30pm -6.1 -9.4 -8.1 86 0.4 SW 2 6 1 3 - - 0.0
05/11:00pm -5.6 -8.4 -7.3 88 0.3 CALM 0 2 0 1 - - 0.0
05/10:30pm -5.0 -8.5 -6.7 88 0.3 SW 4 9 2 5 - - 0.0
05/10:00pm -4.4 -7.9 -6.5 85 0.5 SW 4 9 2 5 - - 0.0
05/09:30pm -3.4 -6.8 -5.7 84 0.6 W 4 7 2 4 - - 0.0
05/09:00pm -2.3 -6.0 -4.5 85 0.7 WSW 6 9 3 5 - - 0.0
05/08:30pm -2.1 -5.9 -4.1 86 0.6 SSW 7 20 4 11 - - 0.0
05/08:00pm -1.4 -4.7 -4.1 82 0.9 WSW 4 11 2 6 - - 0.0
05/07:30pm -0.5 -4.2 -3.2 82 1.0 W 7 15 4 8 - - 0.0
05/07:00pm -0.5 -4.6 -2.7 85 0.8 WNW 9 15 5 8 - - 0.0
05/06:30pm -0.1 -4.8 -2.0 87 0.7 WNW 13 22 7 12 - - 0.0
05/06:00pm 0.4 -5.1 -2.1 83 1.0 WNW 17 24 9 13 - - 0.0
05/05:30pm -0.1 -5.1 -1.5 90 0.5 W 15 24 8 13 - - 0.0
05/05:00pm 0.4 -5.0 -1.3 88 0.7 W 17 22 9 12 - - 0.0
05/04:30pm 1.4 -2.9 -1.3 82 1.1 W 11 20 6 11 - - 0.0
05/04:00pm 1.9 -2.7 -1.3 79 1.3 W 13 22 7 12 - - 0.0
05/03:30pm 2.5 -1.8 -1.8 73 1.7 W 11 19 6 10 - - 0.0
05/03:00pm 3.3 -1.7 -1.4 71 1.9 WNW 15 22 8 12 - - 0.0
05/02:30pm 3.4 -2.0 -1.5 70 2.0 WNW 17 28 9 15 - - 0.0
05/02:00pm 4.0 -1.4 -1.6 67 2.3 WNW 17 28 9 15 - - 0.0
05/01:30pm 3.3 -2.2 -2.0 68 2.1 W 17 26 9 14 - - 0.0
05/01:00pm 3.6 -1.8 -1.3 70 2.0 WNW 17 28 9 15 - - 0.0
05/12:30pm 3.4 -1.6 -1.0 73 1.8 W 15 22 8 12 - - 0.0
05/12:00pm 4.5 0.2 -1.5 65 2.5 W 11 19 6 10 - - 0.0
05/11:30am 3.4 -1.6 -1.0 73 1.8 W 15 22 8 12 - - 0.0
05/11:00am 2.8 -2.2 -1.0 76 1.6 W 15 28 8 15 - - 0.0
05/10:30am 2.6 -2.8 -1.0 77 1.5 W 17 24 9 13 - - 0.0
05/10:00am 2.9 -1.7 -1.3 74 1.7 W 13 22 7 12 - - 0.0
05/09:30am 2.6 -1.3 -1.2 76 1.5 WSW 9 20 5 11 - - 0.0
05/09:00am 2.4 -1.1 -1.6 75 1.6 SW 7 17 4 9 - - 0.0
05/08:30am 1.9 -1.6 -1.7 77 1.4 WSW 7 15 4 8 - - 0.0
05/08:00am 0.9 -2.7 -2.2 80 1.3 WSW 7 13 4 7 - - 0.0
05/07:30am 0.8 -3.3 -2.8 77 1.4 W 9 17 5 9 - - 0.0
05/07:00am 0.9 -3.5 -2.2 80 1.3 W 11 20 6 11 - - 0.0
05/06:30am 1.0 -4.1 -1.7 82 1.1 W 15 22 8 12 - - 0.0
05/06:00am 1.0 -3.7 -1.6 83 1.1 W 13 20 7 11 - - 0.0
05/05:30am 1.0 -4.4 -1.4 84 1.0 W 17 26 9 14 - - 0.0
05/05:00am 1.2 -4.2 -1.7 81 1.1 W 17 24 9 13 - - 0.0
05/04:30am 1.5 -3.9 -1.6 80 1.2 WNW 17 26 9 14 - - 0.0
05/04:00am 1.7 -3.4 -2.2 75 1.5 WNW 15 22 8 12 - - 0.0
05/03:30am 1.7 -3.1 -2.4 74 1.6 WNW 13 20 7 11 - - 0.0
05/03:00am 1.9 -3.2 -1.9 76 1.5 W 15 24 8 13 - - 0.0
05/02:30am 1.4 -2.9 -1.8 79 1.3 WNW 11 19 6 10 - - 0.0
05/02:00am -3.5 -6.4 -4.6 92 0.2 E 2 4 1 2 - - 0.0
05/01:30am -3.2 -6.1 -4.2 93 0.2 S 2 4 1 2 - - 0.0
05/01:00am -3.2 -6.1 -4.5 91 0.3 NE 2 4 1 2 - - 0.0
05/12:30am -3.1 -6.4 -4.4 91 0.3 SW 4 6 2 3 - - 0.0
05/12:00am -2.3 -5.5 -3.4 92 0.3 SSW 4 6 2 3 - - 0.0
 
Date/Time
EST
Temp
°C
App
Temp
°C
Dew
Point
Rel
Hum
%
Delta-T
°C
Wind Press
QNH
hPa
Press
MSL
hPa
Rain
since 9 am
mm
Dir
 
Spd
km/h
Gust
km/h
Spd
kts
Gust
kts
04/11:30pm -1.1 -3.8 -2.5 90 0.5 SW 2 4 1 2 - - 0.0
04/11:00pm -0.1 -2.7 -1.5 90 0.5 NW 2 2 1 1 - - 0.0
04/10:30pm 0.4 -2.1 -1.3 88 0.7 NE 2 4 1 2 - - 0.0
04/10:00pm 0.7 -1.8 -1.1 88 0.8 SW 2 6 1 3 - - 0.0
04/09:30pm 1.1 -1.8 -1.0 86 0.8 SW 4 9 2 5 - - 0.0
04/09:00pm 1.0 -2.8 -0.8 88 0.7 WSW 9 17 5 9 - - 0.0
04/08:30pm 0.3 -3.9 -1.1 90 0.6 SSW 11 17 6 9 - - 0.0
04/08:00pm 0.2 -3.7 -1.5 88 0.7 S 9 15 5 8 - - 0.0
04/07:30pm 0.5 -3.8 -1.4 87 0.8 SSW 11 19 6 10 - - 0.0
04/07:00pm 0.7 -2.8 -1.5 85 0.9 SSW 7 13 4 7 - - 0.0
04/06:30pm 0.9 -2.5 -1.7 83 1.1 SW 6 13 3 7 - - 0.0
04/06:00pm 0.9 -2.6 -1.7 83 1.1 WSW 7 13 4 7 - - 0.0
04/05:30pm 0.8 -2.6 -1.9 82 1.1 SW 6 11 3 6 - - 0.0

Other Formats:

Comma delimited format used in spreadsheet applications
http://www.bom.gov.au/fwo/IDN60801/IDN60801.94915.axf

JavaScript Object Notation format (JSON) in row-major order
http://www.bom.gov.au/fwo/IDN60801/IDN60801.94915.json